sensor_id;sensor_type;location;lat;lon;timestamp;temperature;humidity
23102;DHT22;11720;51.214;22.574;2023-05-24T00:01:18;15.40;91.20
23102;DHT22;11720;51.214;22.574;2023-05-24T00:03:50;15.30;91.30
23102;DHT22;11720;51.214;22.574;2023-05-24T00:06:17;15.20;92.20
23102;DHT22;11720;51.214;22.574;2023-05-24T00:08:43;15.10;93.50
23102;DHT22;11720;51.214;22.574;2023-05-24T00:11:09;15.00;94.80
23102;DHT22;11720;51.214;22.574;2023-05-24T00:13:36;14.90;96.20
23102;DHT22;11720;51.214;22.574;2023-05-24T00:16:02;14.80;96.20
23102;DHT22;11720;51.214;22.574;2023-05-24T00:18:27;14.80;97.60
23102;DHT22;11720;51.214;22.574;2023-05-24T00:20:56;14.70;97.50
23102;DHT22;11720;51.214;22.574;2023-05-24T00:23:25;14.70;97.60
23102;DHT22;11720;51.214;22.574;2023-05-24T00:25:51;14.70;97.60
23102;DHT22;11720;51.214;22.574;2023-05-24T00:28:17;14.70;96.50
23102;DHT22;11720;51.214;22.574;2023-05-24T00:30:43;14.60;97.00
23102;DHT22;11720;51.214;22.574;2023-05-24T00:33:08;14.60;97.20
23102;DHT22;11720;51.214;22.574;2023-05-24T00:35:34;14.60;96.10
23102;DHT22;11720;51.214;22.574;2023-05-24T00:38:00;14.60;96.80
23102;DHT22;11720;51.214;22.574;2023-05-24T00:40:25;14.60;96.70
23102;DHT22;11720;51.214;22.574;2023-05-24T00:42:51;14.60;96.50
23102;DHT22;11720;51.214;22.574;2023-05-24T00:45:17;14.60;96.80
23102;DHT22;11720;51.214;22.574;2023-05-24T00:47:43;14.60;97.30
23102;DHT22;11720;51.214;22.574;2023-05-24T00:50:10;14.60;96.80
23102;DHT22;11720;51.214;22.574;2023-05-24T00:52:39;14.50;97.20
23102;DHT22;11720;51.214;22.574;2023-05-24T00:55:06;14.50;97.10
23102;DHT22;11720;51.214;22.574;2023-05-24T00:57:34;14.50;96.70
23102;DHT22;11720;51.214;22.574;2023-05-24T01:00:00;14.50;96.70
23102;DHT22;11720;51.214;22.574;2023-05-24T01:02:27;14.50;96.40
23102;DHT22;11720;51.214;22.574;2023-05-24T01:04:52;14.50;96.50
23102;DHT22;11720;51.214;22.574;2023-05-24T01:07:32;14.50;96.70
23102;DHT22;11720;51.214;22.574;2023-05-24T01:10:24;14.40;96.10
23102;DHT22;11720;51.214;22.574;2023-05-24T01:16:11;14.50;96.40
23102;DHT22;11720;51.214;22.574;2023-05-24T01:18:46;14.40;96.50
23102;DHT22;11720;51.214;22.574;2023-05-24T01:24:21;14.40;97.50
23102;DHT22;11720;51.214;22.574;2023-05-24T01:27:05;14.40;96.80
23102;DHT22;11720;51.214;22.574;2023-05-24T01:29:33;14.40;96.70
23102;DHT22;11720;51.214;22.574;2023-05-24T01:32:00;14.30;96.70
23102;DHT22;11720;51.214;22.574;2023-05-24T01:34:25;14.30;96.80
23102;DHT22;11720;51.214;22.574;2023-05-24T01:36:51;14.30;97.70
23102;DHT22;11720;51.214;22.574;2023-05-24T01:39:18;14.30;98.60
23102;DHT22;11720;51.214;22.574;2023-05-24T01:44:28;14.20;98.10
23102;DHT22;11720;51.214;22.574;2023-05-24T01:49:39;14.20;99.90
23102;DHT22;11720;51.214;22.574;2023-05-24T01:52:15;14.20;99.90
23102;DHT22;11720;51.214;22.574;2023-05-24T01:54:44;14.10;99.90
23102;DHT22;11720;51.214;22.574;2023-05-24T01:57:12;14.10;99.90
23102;DHT22;11720;51.214;22.574;2023-05-24T01:59:42;14.10;99.90
23102;DHT22;11720;51.214;22.574;2023-05-24T02:02:09;14.00;99.90
23102;DHT22;11720;51.214;22.574;2023-05-24T02:04:35;14.00;99.90
23102;DHT22;11720;51.214;22.574;2023-05-24T02:07:00;14.00;99.90
23102;DHT22;11720;51.214;22.574;2023-05-24T02:09:26;14.00;99.90
23102;DHT22;11720;51.214;22.574;2023-05-24T02:11:51;14.00;99.90
23102;DHT22;11720;51.214;22.574;2023-05-24T02:14:17;13.90;99.90
23102;DHT22;11720;51.214;22.574;2023-05-24T02:16:44;13.90;99.90
23102;DHT22;11720;51.214;22.574;2023-05-24T02:19:12;13.90;99.90
23102;DHT22;11720;51.214;22.574;2023-05-24T02:21:37;13.80;99.90
23102;DHT22;11720;51.214;22.574;2023-05-24T02:24:03;13.80;99.90
23102;DHT22;11720;51.214;22.574;2023-05-24T02:26:30;13.70;99.90
23102;DHT22;11720;51.214;22.574;2023-05-24T02:28:55;13.60;99.90
23102;DHT22;11720;51.214;22.574;2023-05-24T02:31:21;13.60;99.90
23102;DHT22;11720;51.214;22.574;2023-05-24T02:33:47;13.50;99.90
23102;DHT22;11720;51.214;22.574;2023-05-24T02:36:12;13.50;99.90
23102;DHT22;11720;51.214;22.574;2023-05-24T02:38:38;13.50;99.90
23102;DHT22;11720;51.214;22.574;2023-05-24T02:41:04;13.40;99.90
23102;DHT22;11720;51.214;22.574;2023-05-24T02:43:30;13.40;99.90
23102;DHT22;11720;51.214;22.574;2023-05-24T02:45:55;13.40;99.90
23102;DHT22;11720;51.214;22.574;2023-05-24T02:48:21;13.40;99.90
23102;DHT22;11720;51.214;22.574;2023-05-24T02:50:48;13.40;99.90
23102;DHT22;11720;51.214;22.574;2023-05-24T02:53:13;13.40;99.90
23102;DHT22;11720;51.214;22.574;2023-05-24T02:55:39;13.40;99.90
23102;DHT22;11720;51.214;22.574;2023-05-24T02:58:04;13.40;99.90
23102;DHT22;11720;51.214;22.574;2023-05-24T03:00:30;13.40;99.90
23102;DHT22;11720;51.214;22.574;2023-05-24T03:02:56;13.40;99.90
23102;DHT22;11720;51.214;22.574;2023-05-24T03:05:25;13.40;99.90
23102;DHT22;11720;51.214;22.574;2023-05-24T03:07:50;13.50;99.90
23102;DHT22;11720;51.214;22.574;2023-05-24T03:10:16;13.50;99.90
23102;DHT22;11720;51.214;22.574;2023-05-24T03:12:42;13.50;99.90
23102;DHT22;11720;51.214;22.574;2023-05-24T03:15:08;13.50;99.90
23102;DHT22;11720;51.214;22.574;2023-05-24T03:17:33;13.50;99.90
23102;DHT22;11720;51.214;22.574;2023-05-24T03:19:59;13.50;99.90
23102;DHT22;11720;51.214;22.574;2023-05-24T03:22:26;13.50;99.90
23102;DHT22;11720;51.214;22.574;2023-05-24T03:24:53;13.60;99.90
23102;DHT22;11720;51.214;22.574;2023-05-24T03:27:20;13.60;99.90
23102;DHT22;11720;51.214;22.574;2023-05-24T03:29:46;13.60;99.90
23102;DHT22;11720;51.214;22.574;2023-05-24T03:32:11;13.60;99.90
23102;DHT22;11720;51.214;22.574;2023-05-24T03:34:37;13.60;99.90
23102;DHT22;11720;51.214;22.574;2023-05-24T03:37:03;13.70;99.90
23102;DHT22;11720;51.214;22.574;2023-05-24T03:39:28;13.60;99.90
23102;DHT22;11720;51.214;22.574;2023-05-24T03:41:54;13.70;99.90
23102;DHT22;11720;51.214;22.574;2023-05-24T03:44:20;13.70;99.90
23102;DHT22;11720;51.214;22.574;2023-05-24T03:46:46;13.70;99.90
23102;DHT22;11720;51.214;22.574;2023-05-24T03:49:11;13.60;99.90
23102;DHT22;11720;51.214;22.574;2023-05-24T03:51:37;13.60;99.90
23102;DHT22;11720;51.214;22.574;2023-05-24T03:54:02;13.60;99.90
23102;DHT22;11720;51.214;22.574;2023-05-24T03:56:28;13.60;99.90
23102;DHT22;11720;51.214;22.574;2023-05-24T03:58:54;13.60;99.90
23102;DHT22;11720;51.214;22.574;2023-05-24T04:01:22;13.60;99.90
23102;DHT22;11720;51.214;22.574;2023-05-24T04:03:48;13.70;99.90
23102;DHT22;11720;51.214;22.574;2023-05-24T04:06:15;13.70;99.90
23102;DHT22;11720;51.214;22.574;2023-05-24T04:08:41;13.80;99.90
23102;DHT22;11720;51.214;22.574;2023-05-24T04:11:06;13.90;99.90
23102;DHT22;11720;51.214;22.574;2023-05-24T04:13:32;14.00;99.90
23102;DHT22;11720;51.214;22.574;2023-05-24T04:15:58;14.10;99.90
23102;DHT22;11720;51.214;22.574;2023-05-24T04:18:23;14.10;99.90
23102;DHT22;11720;51.214;22.574;2023-05-24T04:20:49;14.20;99.90
23102;DHT22;11720;51.214;22.574;2023-05-24T04:23:15;14.30;99.90
23102;DHT22;11720;51.214;22.574;2023-05-24T04:25:41;14.40;99.90
23102;DHT22;11720;51.214;22.574;2023-05-24T04:28:07;14.40;99.90
23102;DHT22;11720;51.214;22.574;2023-05-24T04:30:32;14.50;99.90
23102;DHT22;11720;51.214;22.574;2023-05-24T04:32:58;14.70;99.90
23102;DHT22;11720;51.214;22.574;2023-05-24T04:35:24;14.80;99.90
23102;DHT22;11720;51.214;22.574;2023-05-24T04:37:51;14.90;99.90
23102;DHT22;11720;51.214;22.574;2023-05-24T04:40:17;15.20;99.90
23102;DHT22;11720;51.214;22.574;2023-05-24T04:42:45;15.30;99.90
23102;DHT22;11720;51.214;22.574;2023-05-24T04:45:11;15.40;99.90
23102;DHT22;11720;51.214;22.574;2023-05-24T04:47:36;15.50;99.90
23102;DHT22;11720;51.214;22.574;2023-05-24T04:50:02;15.70;99.90
23102;DHT22;11720;51.214;22.574;2023-05-24T04:52:28;15.80;99.90
23102;DHT22;11720;51.214;22.574;2023-05-24T04:54:54;15.90;99.90
23102;DHT22;11720;51.214;22.574;2023-05-24T04:57:22;15.90;99.90
23102;DHT22;11720;51.214;22.574;2023-05-24T04:59:47;15.90;99.90
23102;DHT22;11720;51.214;22.574;2023-05-24T05:02:13;15.90;99.90
23102;DHT22;11720;51.214;22.574;2023-05-24T05:04:39;15.80;99.90
23102;DHT22;11720;51.214;22.574;2023-05-24T05:07:04;15.80;99.90
23102;DHT22;11720;51.214;22.574;2023-05-24T05:09:30;15.80;99.90
23102;DHT22;11720;51.214;22.574;2023-05-24T05:11:56;15.80;99.90
23102;DHT22;11720;51.214;22.574;2023-05-24T05:14:22;15.80;99.90
23102;DHT22;11720;51.214;22.574;2023-05-24T05:16:48;15.90;99.90
23102;DHT22;11720;51.214;22.574;2023-05-24T05:19:14;15.80;99.90
23102;DHT22;11720;51.214;22.574;2023-05-24T05:21:40;15.90;99.90
23102;DHT22;11720;51.214;22.574;2023-05-24T05:24:06;15.90;99.90
23102;DHT22;11720;51.214;22.574;2023-05-24T05:26:32;15.90;99.90
23102;DHT22;11720;51.214;22.574;2023-05-24T05:28:59;15.90;99.90
23102;DHT22;11720;51.214;22.574;2023-05-24T05:31:24;15.90;99.90
23102;DHT22;11720;51.214;22.574;2023-05-24T05:33:50;16.00;99.90
23102;DHT22;11720;51.214;22.574;2023-05-24T05:36:16;16.00;99.90
23102;DHT22;11720;51.214;22.574;2023-05-24T05:38:42;16.10;99.90
23102;DHT22;11720;51.214;22.574;2023-05-24T05:41:08;16.20;99.90
23102;DHT22;11720;51.214;22.574;2023-05-24T05:43:34;16.20;99.90
23102;DHT22;11720;51.214;22.574;2023-05-24T05:46:00;16.30;99.90
23102;DHT22;11720;51.214;22.574;2023-05-24T05:48:26;16.40;99.90
23102;DHT22;11720;51.214;22.574;2023-05-24T05:50:52;16.70;99.90
23102;DHT22;11720;51.214;22.574;2023-05-24T05:53:17;16.90;99.90
23102;DHT22;11720;51.214;22.574;2023-05-24T05:55:43;17.10;99.90
23102;DHT22;11720;51.214;22.574;2023-05-24T05:58:09;17.30;99.80
23102;DHT22;11720;51.214;22.574;2023-05-24T06:00:34;17.40;99.70
23102;DHT22;11720;51.214;22.574;2023-05-24T06:03:00;17.60;99.30
23102;DHT22;11720;51.214;22.574;2023-05-24T06:05:26;17.70;98.90
23102;DHT22;11720;51.214;22.574;2023-05-24T06:07:51;18.00;98.90
23102;DHT22;11720;51.214;22.574;2023-05-24T06:10:17;18.20;98.40
23102;DHT22;11720;51.214;22.574;2023-05-24T06:12:43;18.20;97.50
23102;DHT22;11720;51.214;22.574;2023-05-24T06:15:09;18.30;96.10
23102;DHT22;11720;51.214;22.574;2023-05-24T06:17:36;18.40;97.30
23102;DHT22;11720;51.214;22.574;2023-05-24T06:20:05;18.50;96.60
23102;DHT22;11720;51.214;22.574;2023-05-24T06:22:32;18.50;96.30
23102;DHT22;11720;51.214;22.574;2023-05-24T06:25:01;18.60;96.20
23102;DHT22;11720;51.214;22.574;2023-05-24T06:27:27;18.70;95.90
23102;DHT22;11720;51.214;22.574;2023-05-24T06:29:52;18.80;96.10
23102;DHT22;11720;51.214;22.574;2023-05-24T06:32:18;18.90;96.00
23102;DHT22;11720;51.214;22.574;2023-05-24T06:34:43;19.00;95.90
23102;DHT22;11720;51.214;22.574;2023-05-24T06:37:09;19.10;95.00
23102;DHT22;11720;51.214;22.574;2023-05-24T06:39:40;19.20;94.40
23102;DHT22;11720;51.214;22.574;2023-05-24T06:42:06;19.30;92.70
23102;DHT22;11720;51.214;22.574;2023-05-24T06:44:31;19.40;93.30
23102;DHT22;11720;51.214;22.574;2023-05-24T06:47:02;19.40;93.40
23102;DHT22;11720;51.214;22.574;2023-05-24T06:49:27;19.30;93.00
23102;DHT22;11720;51.214;22.574;2023-05-24T06:51:53;19.20;93.20
23102;DHT22;11720;51.214;22.574;2023-05-24T06:54:19;19.20;93.60
23102;DHT22;11720;51.214;22.574;2023-05-24T06:56:46;19.30;95.00
23102;DHT22;11720;51.214;22.574;2023-05-24T06:59:11;19.40;96.10
23102;DHT22;11720;51.214;22.574;2023-05-24T07:01:38;19.50;95.10
23102;DHT22;11720;51.214;22.574;2023-05-24T07:04:08;19.70;95.90
23102;DHT22;11720;51.214;22.574;2023-05-24T07:06:34;19.80;95.40
23102;DHT22;11720;51.214;22.574;2023-05-24T07:09:00;20.00;95.20
23102;DHT22;11720;51.214;22.574;2023-05-24T07:11:29;20.30;95.30
23102;DHT22;11720;51.214;22.574;2023-05-24T07:13:56;20.30;94.60
23102;DHT22;11720;51.214;22.574;2023-05-24T07:16:21;20.50;94.80
23102;DHT22;11720;51.214;22.574;2023-05-24T07:18:47;20.50;94.50
23102;DHT22;11720;51.214;22.574;2023-05-24T07:21:13;20.70;94.70
23102;DHT22;11720;51.214;22.574;2023-05-24T07:23:38;20.90;95.40
23102;DHT22;11720;51.214;22.574;2023-05-24T07:26:04;20.90;93.50
23102;DHT22;11720;51.214;22.574;2023-05-24T07:28:30;20.80;93.50
23102;DHT22;11720;51.214;22.574;2023-05-24T07:30:56;20.70;94.10
23102;DHT22;11720;51.214;22.574;2023-05-24T07:33:21;20.60;93.40
23102;DHT22;11720;51.214;22.574;2023-05-24T07:35:47;20.50;95.50
23102;DHT22;11720;51.214;22.574;2023-05-24T07:38:19;20.40;95.50
23102;DHT22;11720;51.214;22.574;2023-05-24T07:40:44;20.40;96.20
23102;DHT22;11720;51.214;22.574;2023-05-24T07:43:10;20.20;95.30
23102;DHT22;11720;51.214;22.574;2023-05-24T07:45:36;20.10;95.70
23102;DHT22;11720;51.214;22.574;2023-05-24T07:48:01;20.10;96.30
23102;DHT22;11720;51.214;22.574;2023-05-24T07:50:27;20.20;97.10
23102;DHT22;11720;51.214;22.574;2023-05-24T07:52:55;20.30;97.00
23102;DHT22;11720;51.214;22.574;2023-05-24T07:55:21;20.30;97.30
23102;DHT22;11720;51.214;22.574;2023-05-24T07:57:47;20.40;96.80
23102;DHT22;11720;51.214;22.574;2023-05-24T08:00:13;20.50;95.90
23102;DHT22;11720;51.214;22.574;2023-05-24T08:02:42;20.50;95.10
23102;DHT22;11720;51.214;22.574;2023-05-24T08:05:14;20.50;95.10
23102;DHT22;11720;51.214;22.574;2023-05-24T08:07:40;20.50;95.80
23102;DHT22;11720;51.214;22.574;2023-05-24T08:10:08;20.20;96.00
23102;DHT22;11720;51.214;22.574;2023-05-24T08:12:35;20.50;96.10
23102;DHT22;11720;51.214;22.574;2023-05-24T08:15:00;20.60;95.60
23102;DHT22;11720;51.214;22.574;2023-05-24T08:17:26;20.80;95.50
23102;DHT22;11720;51.214;22.574;2023-05-24T08:19:52;20.90;95.30
23102;DHT22;11720;51.214;22.574;2023-05-24T08:22:17;21.00;95.10
23102;DHT22;11720;51.214;22.574;2023-05-24T08:24:44;21.20;95.30
23102;DHT22;11720;51.214;22.574;2023-05-24T08:27:09;21.40;95.20
23102;DHT22;11720;51.214;22.574;2023-05-24T08:29:38;21.60;95.70
23102;DHT22;11720;51.214;22.574;2023-05-24T08:32:04;21.70;95.80
23102;DHT22;11720;51.214;22.574;2023-05-24T08:34:36;21.90;95.50
23102;DHT22;11720;51.214;22.574;2023-05-24T08:37:03;22.10;94.90
23102;DHT22;11720;51.214;22.574;2023-05-24T08:39:29;22.30;94.60
23102;DHT22;11720;51.214;22.574;2023-05-24T08:41:57;22.60;93.50
23102;DHT22;11720;51.214;22.574;2023-05-24T08:44:24;22.70;92.80
23102;DHT22;11720;51.214;22.574;2023-05-24T08:46:50;22.80;91.60
23102;DHT22;11720;51.214;22.574;2023-05-24T08:49:17;23.00;91.20
23102;DHT22;11720;51.214;22.574;2023-05-24T08:51:43;23.00;90.20
23102;DHT22;11720;51.214;22.574;2023-05-24T08:54:10;23.00;90.00
23102;DHT22;11720;51.214;22.574;2023-05-24T08:56:39;23.10;90.20
23102;DHT22;11720;51.214;22.574;2023-05-24T08:59:08;23.20;90.50
23102;DHT22;11720;51.214;22.574;2023-05-24T09:01:38;23.30;90.40
23102;DHT22;11720;51.214;22.574;2023-05-24T09:04:05;23.30;90.30
23102;DHT22;11720;51.214;22.574;2023-05-24T09:06:31;23.30;91.30
23102;DHT22;11720;51.214;22.574;2023-05-24T09:08:59;23.50;91.40
23102;DHT22;11720;51.214;22.574;2023-05-24T09:11:26;23.60;90.70
23102;DHT22;11720;51.214;22.574;2023-05-24T09:13:54;23.60;91.00
23102;DHT22;11720;51.214;22.574;2023-05-24T09:16:20;23.70;90.80
23102;DHT22;11720;51.214;22.574;2023-05-24T09:18:46;23.90;90.80
23102;DHT22;11720;51.214;22.574;2023-05-24T09:21:12;24.00;90.40
23102;DHT22;11720;51.214;22.574;2023-05-24T09:23:40;24.10;90.80
23102;DHT22;11720;51.214;22.574;2023-05-24T09:26:09;24.10;88.80
23102;DHT22;11720;51.214;22.574;2023-05-24T09:28:36;24.20;91.20
23102;DHT22;11720;51.214;22.574;2023-05-24T09:31:02;24.20;90.00
23102;DHT22;11720;51.214;22.574;2023-05-24T09:33:32;24.30;89.40
23102;DHT22;11720;51.214;22.574;2023-05-24T09:36:02;24.30;89.80
23102;DHT22;11720;51.214;22.574;2023-05-24T09:38:28;24.20;88.80
23102;DHT22;11720;51.214;22.574;2023-05-24T09:41:07;24.00;89.30
23102;DHT22;11720;51.214;22.574;2023-05-24T09:43:34;24.20;90.80
23102;DHT22;11720;51.214;22.574;2023-05-24T09:46:16;23.70;90.60
23102;DHT22;11720;51.214;22.574;2023-05-24T09:48:54;23.60;93.60
23102;DHT22;11720;51.214;22.574;2023-05-24T09:51:20;23.70;91.80
23102;DHT22;11720;51.214;22.574;2023-05-24T09:53:48;23.00;92.70
23102;DHT22;11720;51.214;22.574;2023-05-24T09:56:17;22.60;95.60
23102;DHT22;11720;51.214;22.574;2023-05-24T09:58:44;22.90;94.50
23102;DHT22;11720;51.214;22.574;2023-05-24T10:01:10;23.00;94.20
23102;DHT22;11720;51.214;22.574;2023-05-24T10:03:36;22.90;92.90
23102;DHT22;11720;51.214;22.574;2023-05-24T10:06:05;22.90;91.60
23102;DHT22;11720;51.214;22.574;2023-05-24T10:08:35;22.60;93.00
23102;DHT22;11720;51.214;22.574;2023-05-24T10:11:04;22.40;93.60
23102;DHT22;11720;51.214;22.574;2023-05-24T10:13:35;22.40;93.30
23102;DHT22;11720;51.214;22.574;2023-05-24T10:16:02;22.50;94.40
23102;DHT22;11720;51.214;22.574;2023-05-24T10:18:28;22.70;93.70
23102;DHT22;11720;51.214;22.574;2023-05-24T10:20:55;22.70;95.10
23102;DHT22;11720;51.214;22.574;2023-05-24T10:23:28;22.80;95.00
23102;DHT22;11720;51.214;22.574;2023-05-24T10:26:08;23.10;90.80
23102;DHT22;11720;51.214;22.574;2023-05-24T10:29:02;23.30;88.60
23102;DHT22;11720;51.214;22.574;2023-05-24T10:31:34;23.70;87.20
23102;DHT22;11720;51.214;22.574;2023-05-24T10:34:02;23.50;82.60
23102;DHT22;11720;51.214;22.574;2023-05-24T10:36:29;23.00;84.90
23102;DHT22;11720;51.214;22.574;2023-05-24T10:38:57;22.90;86.30
23102;DHT22;11720;51.214;22.574;2023-05-24T10:41:25;22.80;86.80
23102;DHT22;11720;51.214;22.574;2023-05-24T10:43:52;22.80;86.70
23102;DHT22;11720;51.214;22.574;2023-05-24T10:46:19;23.00;87.20
23102;DHT22;11720;51.214;22.574;2023-05-24T10:48:59;23.50;83.90
23102;DHT22;11720;51.214;22.574;2023-05-24T10:51:32;23.20;83.20
23102;DHT22;11720;51.214;22.574;2023-05-24T10:54:16;23.00;80.80
23102;DHT22;11720;51.214;22.574;2023-05-24T10:56:47;23.10;82.50
23102;DHT22;11720;51.214;22.574;2023-05-24T10:59:42;23.10;81.80
23102;DHT22;11720;51.214;22.574;2023-05-24T11:02:10;23.20;83.30
23102;DHT22;11720;51.214;22.574;2023-05-24T11:04:41;23.40;83.80
23102;DHT22;11720;51.214;22.574;2023-05-24T11:07:09;23.60;83.80
23102;DHT22;11720;51.214;22.574;2023-05-24T11:09:37;23.40;81.30
23102;DHT22;11720;51.214;22.574;2023-05-24T11:12:15;23.30;81.80
23102;DHT22;11720;51.214;22.574;2023-05-24T11:14:50;23.70;82.90
23102;DHT22;11720;51.214;22.574;2023-05-24T11:17:19;23.80;79.80
23102;DHT22;11720;51.214;22.574;2023-05-24T11:19:53;23.50;80.90
23102;DHT22;11720;51.214;22.574;2023-05-24T11:22:21;23.60;81.00
23102;DHT22;11720;51.214;22.574;2023-05-24T11:24:47;23.50;78.90
23102;DHT22;11720;51.214;22.574;2023-05-24T11:27:13;23.80;80.20
23102;DHT22;11720;51.214;22.574;2023-05-24T11:29:44;24.30;79.20
23102;DHT22;11720;51.214;22.574;2023-05-24T11:32:14;24.50;78.60
23102;DHT22;11720;51.214;22.574;2023-05-24T11:34:41;24.40;75.50
23102;DHT22;11720;51.214;22.574;2023-05-24T11:37:10;23.80;77.30
23102;DHT22;11720;51.214;22.574;2023-05-24T11:39:36;23.90;79.20
23102;DHT22;11720;51.214;22.574;2023-05-24T11:42:06;24.00;78.50
23102;DHT22;11720;51.214;22.574;2023-05-24T11:44:33;24.10;74.40
23102;DHT22;11720;51.214;22.574;2023-05-24T11:47:03;23.90;73.40
23102;DHT22;11720;51.214;22.574;2023-05-24T11:49:29;23.80;75.20
23102;DHT22;11720;51.214;22.574;2023-05-24T11:51:57;23.80;72.90
23102;DHT22;11720;51.214;22.574;2023-05-24T11:54:24;23.60;77.20
23102;DHT22;11720;51.214;22.574;2023-05-24T11:56:52;24.10;79.20
23102;DHT22;11720;51.214;22.574;2023-05-24T11:59:25;24.40;79.10
23102;DHT22;11720;51.214;22.574;2023-05-24T12:02:02;24.70;75.40
23102;DHT22;11720;51.214;22.574;2023-05-24T12:04:29;24.70;77.50
23102;DHT22;11720;51.214;22.574;2023-05-24T12:06:55;24.60;73.30
23102;DHT22;11720;51.214;22.574;2023-05-24T12:09:21;24.20;73.00
23102;DHT22;11720;51.214;22.574;2023-05-24T12:11:47;24.40;75.10
23102;DHT22;11720;51.214;22.574;2023-05-24T12:14:22;24.70;77.30
23102;DHT22;11720;51.214;22.574;2023-05-24T12:16:53;25.10;73.70
23102;DHT22;11720;51.214;22.574;2023-05-24T12:19:20;25.40;69.20
23102;DHT22;11720;51.214;22.574;2023-05-24T12:21:48;25.40;67.10
23102;DHT22;11720;51.214;22.574;2023-05-24T12:24:16;25.40;66.60
23102;DHT22;11720;51.214;22.574;2023-05-24T12:26:47;25.10;64.90
23102;DHT22;11720;51.214;22.574;2023-05-24T12:29:13;24.70;67.50
23102;DHT22;11720;51.214;22.574;2023-05-24T12:31:40;24.90;70.40
23102;DHT22;11720;51.214;22.574;2023-05-24T12:34:16;25.20;69.90
23102;DHT22;11720;51.214;22.574;2023-05-24T12:36:42;25.30;66.60
23102;DHT22;11720;51.214;22.574;2023-05-24T12:39:18;25.30;68.60
23102;DHT22;11720;51.214;22.574;2023-05-24T12:41:52;25.60;70.10
23102;DHT22;11720;51.214;22.574;2023-05-24T12:44:32;25.60;67.90
23102;DHT22;11720;51.214;22.574;2023-05-24T12:46:58;25.80;68.40
23102;DHT22;11720;51.214;22.574;2023-05-24T12:49:24;25.80;63.30
23102;DHT22;11720;51.214;22.574;2023-05-24T12:51:53;25.40;63.60
23102;DHT22;11720;51.214;22.574;2023-05-24T12:54:22;25.50;64.70
23102;DHT22;11720;51.214;22.574;2023-05-24T12:56:49;25.90;66.30
23102;DHT22;11720;51.214;22.574;2023-05-24T12:59:15;26.00;65.90
23102;DHT22;11720;51.214;22.574;2023-05-24T13:01:41;26.10;64.40
23102;DHT22;11720;51.214;22.574;2023-05-24T13:04:07;26.20;65.10
23102;DHT22;11720;51.214;22.574;2023-05-24T13:06:35;26.20;64.20
23102;DHT22;11720;51.214;22.574;2023-05-24T13:09:02;26.40;62.50
23102;DHT22;11720;51.214;22.574;2023-05-24T13:11:27;26.30;60.50
23102;DHT22;11720;51.214;22.574;2023-05-24T13:13:55;26.40;60.20
23102;DHT22;11720;51.214;22.574;2023-05-24T13:16:22;26.40;57.00
23102;DHT22;11720;51.214;22.574;2023-05-24T13:18:48;26.50;57.30
23102;DHT22;11720;51.214;22.574;2023-05-24T13:21:14;26.50;56.80
23102;DHT22;11720;51.214;22.574;2023-05-24T13:23:42;26.60;57.10
23102;DHT22;11720;51.214;22.574;2023-05-24T13:26:08;26.70;56.00
23102;DHT22;11720;51.214;22.574;2023-05-24T13:28:34;26.70;56.00
23102;DHT22;11720;51.214;22.574;2023-05-24T13:31:00;26.90;55.60
23102;DHT22;11720;51.214;22.574;2023-05-24T13:33:26;27.00;56.00
23102;DHT22;11720;51.214;22.574;2023-05-24T13:35:52;27.20;53.60
23102;DHT22;11720;51.214;22.574;2023-05-24T13:38:20;27.20;53.50
23102;DHT22;11720;51.214;22.574;2023-05-24T13:40:46;27.00;52.80
23102;DHT22;11720;51.214;22.574;2023-05-24T13:43:11;27.00;54.10
23102;DHT22;11720;51.214;22.574;2023-05-24T13:45:37;26.90;56.40
23102;DHT22;11720;51.214;22.574;2023-05-24T13:48:03;26.90;57.60
23102;DHT22;11720;51.214;22.574;2023-05-24T13:50:31;27.00;57.20
23102;DHT22;11720;51.214;22.574;2023-05-24T13:52:58;27.10;57.10
23102;DHT22;11720;51.214;22.574;2023-05-24T13:55:26;26.80;55.70
23102;DHT22;11720;51.214;22.574;2023-05-24T13:57:53;26.80;56.10
23102;DHT22;11720;51.214;22.574;2023-05-24T14:00:20;26.90;55.70
23102;DHT22;11720;51.214;22.574;2023-05-24T14:02:47;26.90;53.90
23102;DHT22;11720;51.214;22.574;2023-05-24T14:05:13;27.10;54.50
23102;DHT22;11720;51.214;22.574;2023-05-24T14:07:38;26.80;53.30
23102;DHT22;11720;51.214;22.574;2023-05-24T14:10:05;26.70;53.90
23102;DHT22;11720;51.214;22.574;2023-05-24T14:12:31;26.60;53.00
23102;DHT22;11720;51.214;22.574;2023-05-24T14:14:57;26.80;54.50
23102;DHT22;11720;51.214;22.574;2023-05-24T14:17:23;27.00;54.40
23102;DHT22;11720;51.214;22.574;2023-05-24T14:19:48;27.10;54.50
23102;DHT22;11720;51.214;22.574;2023-05-24T14:22:14;26.90;54.50
23102;DHT22;11720;51.214;22.574;2023-05-24T14:24:40;26.80;53.30
23102;DHT22;11720;51.214;22.574;2023-05-24T14:27:05;26.70;55.60
23102;DHT22;11720;51.214;22.574;2023-05-24T14:29:32;26.60;54.30
23102;DHT22;11720;51.214;22.574;2023-05-24T14:31:57;26.60;53.40
23102;DHT22;11720;51.214;22.574;2023-05-24T14:34:23;26.70;55.30
23102;DHT22;11720;51.214;22.574;2023-05-24T14:36:49;26.60;53.80
23102;DHT22;11720;51.214;22.574;2023-05-24T14:39:14;26.60;55.10
23102;DHT22;11720;51.214;22.574;2023-05-24T14:41:40;26.60;55.40
23102;DHT22;11720;51.214;22.574;2023-05-24T14:44:06;26.60;54.10
23102;DHT22;11720;51.214;22.574;2023-05-24T14:46:32;26.70;54.30
23102;DHT22;11720;51.214;22.574;2023-05-24T14:48:57;26.60;53.00
23102;DHT22;11720;51.214;22.574;2023-05-24T14:51:23;26.40;51.60
23102;DHT22;11720;51.214;22.574;2023-05-24T14:53:49;26.50;53.90
23102;DHT22;11720;51.214;22.574;2023-05-24T14:56:15;26.80;55.00
23102;DHT22;11720;51.214;22.574;2023-05-24T14:58:41;26.50;53.80
23102;DHT22;11720;51.214;22.574;2023-05-24T15:01:07;26.60;54.90
23102;DHT22;11720;51.214;22.574;2023-05-24T15:03:36;26.60;55.30
23102;DHT22;11720;51.214;22.574;2023-05-24T15:06:02;26.60;55.10
23102;DHT22;11720;51.214;22.574;2023-05-24T15:08:28;26.60;55.80
23102;DHT22;11720;51.214;22.574;2023-05-24T15:10:54;26.60;55.00
23102;DHT22;11720;51.214;22.574;2023-05-24T15:13:20;26.70;54.70
23102;DHT22;11720;51.214;22.574;2023-05-24T15:15:47;26.80;54.50
23102;DHT22;11720;51.214;22.574;2023-05-24T15:18:13;26.50;53.50
23102;DHT22;11720;51.214;22.574;2023-05-24T15:20:38;26.40;54.70
23102;DHT22;11720;51.214;22.574;2023-05-24T15:23:04;26.40;55.70
23102;DHT22;11720;51.214;22.574;2023-05-24T15:25:30;26.70;56.40
23102;DHT22;11720;51.214;22.574;2023-05-24T15:27:56;26.90;53.90